Time;durP1;ratioP1;P1;durP2;ratioP2;P2;SDS_P1;SDS_P2;PMS_P1;PMS_P2;Temp;Humidity;BMP_temperature;BMP_pressure;BME280_temperature;BME280_humidity;BME280_pressure;Samples;Min_cycle;Max_cycle;Signal;HPM_P1;HPM_P2
2023/03/30 00:00:18;;;;;;;9.63;8.63;;;9.20;99.90;;;;;;5055495;28;20432;-84
2023/03/30 00:02:48;;;;;;;10.17;9.13;;;9.10;1.00;;;;;;5048903;28;20415;-83
2023/03/30 00:05:16;;;;;;;9.60;8.60;;;9.40;1.00;;;;;;5048860;28;20949;-83
2023/03/30 00:07:44;;;;;;;12.87;9.77;;;9.20;1.00;;;;;;5058469;28;20441;-83
2023/03/30 00:10:13;;;;;;;9.63;8.57;;;9.20;99.90;;;;;;5058705;28;20435;-83
2023/03/30 00:12:42;;;;;;;10.20;9.13;;;9.20;1.00;;;;;;5041707;28;20455;-85
2023/03/30 00:15:11;;;;;;;10.63;9.53;;;9.10;1.00;;;;;;5042062;28;20514;-85
2023/03/30 00:17:38;;;;;;;9.77;8.43;;;9.10;1.00;;;;;;5035755;28;20806;-85
2023/03/30 00:20:10;;;;;;;10.10;9.17;;;9.10;99.90;;;;;;5036572;28;20896;-85
2023/03/30 00:22:37;;;;;;;11.50;9.70;;;9.10;67.00;;;;;;5038410;28;20490;-83
2023/03/30 00:25:07;;;;;;;9.70;8.77;;;9.10;99.90;;;;;;5042303;28;20477;-84
2023/03/30 00:27:34;;;;;;;9.77;8.57;;;9.10;1.00;;;;;;5043584;28;20825;-84
2023/03/30 00:30:01;;;;;;;10.33;9.30;;;9.00;1.00;;;;;;5042793;28;20429;-84
2023/03/30 00:32:28;;;;;;;14.77;9.30;;;9.00;1.00;;;;;;5042201;28;20924;-83
2023/03/30 00:34:56;;;;;;;10.73;9.60;;;9.00;1.00;;;;;;5042377;28;20473;-83
2023/03/30 00:37:24;;;;;;;9.37;8.57;;;8.90;1.00;;;;;;5042853;28;20424;-83
2023/03/30 00:39:52;;;;;;;12.23;9.23;;;9.00;99.90;;;;;;5042607;28;20539;-84
2023/03/30 00:42:21;;;;;;;12.03;10.80;;;8.90;1.00;;;;;;5042355;28;20778;-84
2023/03/30 00:45:20;;;;;;;10.80;9.70;;;8.90;1.00;;;;;;5051519;28;20471;-83
2023/03/30 00:47:52;;;;;;;12.50;9.37;;;8.90;1.00;;;;;;5023681;28;20446;-83
2023/03/30 00:50:21;;;;;;;11.60;9.77;;;8.80;23.00;;;;;;5042735;28;20408;-83
2023/03/30 00:52:54;;;;;;;10.03;9.13;;;8.80;99.90;;;;;;5043672;28;20420;-84
2023/03/30 00:55:23;;;;;;;10.77;9.23;;;8.70;99.90;;;;;;5042512;28;20512;-83
2023/03/30 00:57:52;;;;;;;13.33;9.80;;;8.70;99.90;;;;;;5042765;28;20428;-83
2023/03/30 01:00:21;;;;;;;12.07;9.40;;;8.70;99.90;;;;;;5042567;28;20431;-83
2023/03/30 01:02:54;;;;;;;10.60;8.80;;;8.40;99.90;;;;;;5040719;28;20453;-83
2023/03/30 01:05:23;;;;;;;10.97;9.37;;;8.80;99.90;;;;;;5039778;28;20446;-83
2023/03/30 01:07:50;;;;;;;9.37;8.47;;;9.20;99.90;;;;;;5039366;28;20784;-83
2023/03/30 01:10:18;;;;;;;10.47;9.37;;;8.80;15.70;;;;;;5039581;28;20451;-83
2023/03/30 01:12:46;;;;;;;11.77;9.70;;;8.80;6.80;;;;;;5046376;28;20425;-83
2023/03/30 01:15:16;;;;;;;12.67;9.43;;;8.60;99.90;;;;;;5044679;28;20475;-83
2023/03/30 01:18:01;;;;;;;10.93;9.70;;;8.70;99.90;;;;;;5044570;28;20411;-83
2023/03/30 01:21:22;;;;;;;11.67;9.37;;;8.80;99.90;;;;;;5043048;28;20438;-83
2023/03/30 01:24:19;;;;;;;11.23;9.97;;;9.70;1.00;;;;;;5040747;28;20466;-83
2023/03/30 01:26:56;;;;;;;9.57;8.70;;;8.70;99.90;;;;;;5061103;22;20499;-81
2023/03/30 01:30:01;;;;;;;11.13;9.10;;;8.60;1.00;;;;;;5038640;28;20430;-79
2023/03/30 01:33:03;;;;;;;10.13;8.70;;;8.60;1.00;;;;;;5029804;28;20484;-80
2023/03/30 01:36:02;;;;;;;13.17;8.50;;;8.50;1.00;;;;;;5008634;28;20455;-80
2023/03/30 01:39:23;;;;;;;9.73;8.70;;;8.50;1.00;;;;;;5042089;28;20454;-81
2023/03/30 01:41:58;;;;;;;16.73;9.30;;;8.50;1.00;;;;;;5017142;28;20459;-80
2023/03/30 01:44:34;;;;;;;10.50;9.50;;;8.50;1.00;;;;;;5041110;28;20488;-80
2023/03/30 01:47:06;;;;;;;11.43;8.93;;;8.60;1.00;;;;;;5041982;28;20804;-80
2023/03/30 01:49:41;;;;;;;14.23;9.70;;;8.60;1.00;;;;;;5041374;28;20432;-81
2023/03/30 01:52:16;;;;;;;9.90;8.23;;;8.50;1.00;;;;;;5040948;28;20414;-80
2023/03/30 01:54:48;;;;;;;12.30;9.70;;;8.60;1.00;;;;;;5039343;28;20433;-79
2023/03/30 01:57:19;;;;;;;9.23;8.30;;;8.50;1.00;;;;;;5040214;28;20413;-79
2023/03/30 01:59:54;;;;;;;9.83;8.83;;;8.50;1.00;;;;;;5039844;28;20453;-79
2023/03/30 02:02:22;;;;;;;12.90;9.10;;;8.50;1.00;;;;;;5038943;28;20419;-80
2023/03/30 02:04:53;;;;;;;10.00;9.00;;;8.60;1.00;;;;;;5038937;28;20449;-80
2023/03/30 02:07:23;;;;;;;9.87;8.87;;;8.50;1.00;;;;;;5042790;28;20434;-80
2023/03/30 02:09:52;;;;;;;14.17;8.63;;;8.60;1.00;;;;;;5045146;28;20782;-80
2023/03/30 02:12:22;;;;;;;10.53;9.43;;;8.50;1.00;;;;;;5040772;28;20452;-79
2023/03/30 02:14:49;;;;;;;9.60;8.60;;;8.40;48.70;;;;;;5044053;28;20859;-79
2023/03/30 02:17:19;;;;;;;16.40;9.40;;;8.60;1.00;;;;;;5042843;28;20830;-80
2023/03/30 02:19:47;;;;;;;10.63;9.40;;;8.60;1.00;;;;;;5040762;28;20452;-80
2023/03/30 02:22:15;;;;;;;10.33;9.20;;;8.70;1.00;;;;;;5042198;28;20494;-80
2023/03/30 02:24:44;;;;;;;9.30;8.27;;;8.80;1.00;;;;;;5039132;28;20424;-79
2023/03/30 02:27:11;;;;;;;10.50;8.40;;;8.70;1.00;;;;;;5041186;28;20428;-81
2023/03/30 02:29:43;;;;;;;10.07;8.40;;;8.60;1.00;;;;;;5040177;28;20939;-80
2023/03/30 02:32:16;;;;;;;10.67;8.17;;;8.70;1.00;;;;;;5039694;28;20994;-81
2023/03/30 02:35:06;;;;;;;10.00;8.67;;;8.70;1.00;;;;;;5040298;28;20521;-81
2023/03/30 02:38:10;;;;;;;9.87;8.87;;;8.70;1.00;;;;;;5039388;28;20404;-80
2023/03/30 02:40:47;;;;;;;11.43;8.50;;;8.70;1.00;;;;;;5038638;28;20406;-80
2023/03/30 02:43:26;;;;;;;9.90;8.90;;;8.80;1.00;;;;;;5039540;28;20498;-80
2023/03/30 02:46:10;;;;;;;8.30;7.43;;;8.80;1.00;;;;;;5046917;28;20474;-79
2023/03/30 02:48:42;;;;;;;8.67;7.77;;;8.80;1.00;;;;;;5039266;28;20464;-79
2023/03/30 02:51:23;;;;;;;9.87;7.80;;;8.80;1.00;;;;;;5040025;28;20874;-81
2023/03/30 02:54:00;;;;;;;9.80;7.70;;;8.80;1.00;;;;;;5039811;28;20421;-80
2023/03/30 02:56:36;;;;;;;8.90;8.10;;;8.70;1.00;;;;;;5040237;28;20465;-80
2023/03/30 02:59:05;;;;;;;10.43;8.10;;;8.80;1.00;;;;;;5038120;28;20449;-80
2023/03/30 03:01:37;;;;;;;16.20;8.83;;;8.80;1.00;;;;;;5037798;28;20456;-80
2023/03/30 03:04:06;;;;;;;12.93;9.03;;;8.80;1.00;;;;;;5038993;28;20818;-81
2023/03/30 03:06:33;;;;;;;9.43;8.53;;;8.70;1.00;;;;;;5042132;28;20457;-80
2023/03/30 03:09:00;;;;;;;11.83;8.50;;;8.70;1.00;;;;;;5038433;28;20417;-80
2023/03/30 03:11:27;;;;;;;10.33;9.33;;;8.60;1.00;;;;;;5039943;28;20545;-79
2023/03/30 03:13:54;;;;;;;10.50;9.20;;;8.50;17.30;;;;;;5043299;28;20423;-80
2023/03/30 03:16:22;;;;;;;8.97;8.07;;;8.60;1.00;;;;;;5046310;28;20902;-80
2023/03/30 03:18:50;;;;;;;9.77;7.73;;;8.60;1.00;;;;;;5044258;28;20963;-83
2023/03/30 03:21:17;;;;;;;11.87;9.10;;;8.60;1.00;;;;;;5042150;28;20441;-82
2023/03/30 03:23:47;;;;;;;10.43;9.33;;;8.60;1.00;;;;;;5044504;28;20518;-80
2023/03/30 03:26:14;;;;;;;10.73;9.17;;;8.50;76.40;;;;;;5051953;28;20479;-79
2023/03/30 03:28:41;;;;;;;11.03;9.30;;;8.60;43.70;;;;;;5051196;28;20450;-79
2023/03/30 03:31:08;;;;;;;9.47;8.57;;;8.60;1.00;;;;;;5048669;28;20444;-79
2023/03/30 03:33:35;;;;;;;11.97;10.77;;;8.60;3.90;;;;;;5049533;28;20428;-79
2023/03/30 03:36:04;;;;;;;13.40;11.80;;;8.60;1.00;;;;;;5050372;28;20468;-79
2023/03/30 03:38:31;;;;;;;12.33;9.40;;;8.90;17.60;;;;;;5047144;28;20463;-80
2023/03/30 03:40:59;;;;;;;11.53;9.87;;;8.60;1.00;;;;;;5041072;28;20458;-81
2023/03/30 03:43:26;;;;;;;12.70;11.10;;;8.60;1.00;;;;;;5042535;28;20444;-81
2023/03/30 03:45:53;;;;;;;12.60;10.10;;;8.70;1.00;;;;;;5037958;28;20501;-81
2023/03/30 03:48:21;;;;;;;9.73;8.70;;;8.70;11.80;;;;;;5037247;28;20460;-81
2023/03/30 03:50:50;;;;;;;10.80;9.70;;;8.60;8.50;;;;;;5038179;28;20454;-81
2023/03/30 03:53:18;;;;;;;12.97;10.07;;;8.70;41.10;;;;;;5040974;28;20499;-81
2023/03/30 03:55:46;;;;;;;10.00;8.57;;;8.60;16.50;;;;;;5049364;28;20464;-81
2023/03/30 03:58:14;;;;;;;10.60;9.00;;;8.60;30.00;;;;;;5045309;28;20442;-82
2023/03/30 04:00:41;;;;;;;10.00;9.00;;;8.80;99.90;;;;;;5043173;28;20481;-81
2023/03/30 04:03:08;;;;;;;11.77;8.70;;;8.70;60.30;;;;;;5041041;28;20496;-81
2023/03/30 04:05:36;;;;;;;9.13;8.20;;;8.70;15.50;;;;;;5041764;28;21007;-81
2023/03/30 04:08:03;;;;;;;10.20;9.20;;;8.70;12.00;;;;;;5040958;28;20460;-81
2023/03/30 04:10:31;;;;;;;14.30;8.97;;;8.50;80.80;;;;;;5037097;28;20819;-81
2023/03/30 04:12:58;;;;;;;10.77;8.70;;;8.70;18.70;;;;;;5038021;28;20916;-82
2023/03/30 04:15:25;;;;;;;13.70;9.47;;;8.70;9.60;;;;;;5051813;28;20508;-81
2023/03/30 04:17:56;;;;;;;10.00;8.90;;;8.70;18.70;;;;;;5058676;28;20449;-82
2023/03/30 04:20:25;;;;;;;11.10;9.10;;;8.70;21.60;;;;;;5055778;28;20500;-80
2023/03/30 04:22:53;;;;;;;12.50;9.70;;;8.70;26.30;;;;;;5039801;28;20427;-81
2023/03/30 04:25:21;;;;;;;8.93;8.07;;;8.70;9.20;;;;;;5046116;28;20523;-81
2023/03/30 04:27:50;;;;;;;9.53;8.00;;;8.40;48.10;;;;;;5047453;28;20454;-80
2023/03/30 04:30:18;;;;;;;9.93;8.00;;;8.70;1.00;;;;;;5041866;28;20425;-82
2023/03/30 04:32:45;;;;;;;11.07;9.30;;;8.70;1.00;;;;;;5040992;28;20544;-82
2023/03/30 04:35:15;;;;;;;12.43;9.20;;;8.70;1.00;;;;;;5044760;28;20522;-79
2023/03/30 04:37:42;;;;;;;11.67;8.83;;;8.70;17.60;;;;;;5043662;28;20822;-81
2023/03/30 04:40:10;;;;;;;17.53;9.53;;;8.70;36.90;;;;;;5044178;28;20806;-81
2023/03/30 04:42:37;;;;;;;12.43;8.73;;;8.70;37.10;;;;;;5038955;28;20453;-80
2023/03/30 04:45:07;;;;;;;11.37;9.23;;;8.90;59.70;;;;;;5037845;28;20969;-80
2023/03/30 04:47:35;;;;;;;10.47;9.20;;;8.70;7.40;;;;;;5037466;28;20446;-80
2023/03/30 04:50:02;;;;;;;9.50;8.30;;;8.60;37.30;;;;;;5038629;28;20415;-81
2023/03/30 04:52:29;;;;;;;10.73;7.90;;;8.70;1.00;;;;;;5040795;28;20459;-81
2023/03/30 04:54:56;;;;;;;10.93;9.03;;;8.80;1.00;;;;;;5039319;28;20873;-81
2023/03/30 04:57:23;;;;;;;16.50;10.57;;;8.80;1.00;;;;;;5037970;28;20484;-81
2023/03/30 04:59:50;;;;;;;11.07;8.77;;;8.70;1.00;;;;;;5038738;28;20573;-80
2023/03/30 05:02:18;;;;;;;9.80;8.07;;;8.80;1.00;;;;;;5041558;28;20454;-81
2023/03/30 05:04:45;;;;;;;13.17;9.07;;;8.60;1.00;;;;;;5040501;28;20902;-81
2023/03/30 05:07:13;;;;;;;8.93;7.93;;;8.70;1.00;;;;;;5046670;28;21004;-79
2023/03/30 05:09:40;;;;;;;8.30;7.43;;;8.70;1.00;;;;;;5046155;28;20452;-81
2023/03/30 05:12:07;;;;;;;9.40;8.10;;;8.80;1.00;;;;;;5040870;28;20532;-80
2023/03/30 05:14:34;;;;;;;10.67;8.37;;;8.80;1.00;;;;;;5041006;28;20999;-81
2023/03/30 05:17:01;;;;;;;9.57;8.50;;;8.90;1.00;;;;;;5046455;28;20512;-82
2023/03/30 05:19:30;;;;;;;11.30;8.40;;;8.80;1.00;;;;;;5043359;28;20309;-81
2023/03/30 05:21:57;;;;;;;10.13;9.03;;;8.90;1.00;;;;;;5043314;28;20955;-81
2023/03/30 05:24:25;;;;;;;9.40;7.93;;;8.70;1.00;;;;;;5043643;28;20516;-81
2023/03/30 05:26:51;;;;;;;11.33;7.60;;;8.90;1.00;;;;;;5043353;28;20592;-80
2023/03/30 05:29:18;;;;;;;10.37;8.33;;;8.90;1.00;;;;;;5043157;28;20502;-81
2023/03/30 05:31:45;;;;;;;8.20;7.50;;;8.90;1.00;;;;;;5044135;28;20447;-81
2023/03/30 05:34:13;;;;;;;13.63;7.70;;;9.00;1.00;;;;;;5049598;28;20452;-80
2023/03/30 05:36:41;;;;;;;12.77;8.27;;;9.00;1.00;;;;;;5047028;28;20496;-81
2023/03/30 05:39:09;;;;;;;9.10;7.53;;;9.00;1.00;;;;;;5043237;28;20416;-82
2023/03/30 05:41:36;;;;;;;8.40;7.40;;;9.00;1.00;;;;;;5043404;28;20502;-80
2023/03/30 05:44:03;;;;;;;12.00;7.10;;;9.10;99.90;;;;;;5046103;28;20488;-81
2023/03/30 05:46:30;;;;;;;12.93;7.50;;;9.00;99.90;;;;;;5041993;28;21080;-80
2023/03/30 05:48:57;;;;;;;13.17;8.80;;;9.00;99.90;;;;;;5041948;28;20459;-81
2023/03/30 05:51:25;;;;;;;9.67;6.90;;;9.10;99.90;;;;;;5042146;28;20441;-80
2023/03/30 05:53:53;;;;;;;9.80;7.80;;;9.10;99.90;;;;;;5041810;28;20799;-81
2023/03/30 05:56:20;;;;;;;13.43;8.47;;;9.10;99.90;;;;;;5041901;28;20543;-80
2023/03/30 05:58:47;;;;;;;11.70;8.40;;;9.10;99.90;;;;;;5046819;28;20463;-79
2023/03/30 06:01:14;;;;;;;8.20;7.20;;;9.40;99.90;;;;;;5049272;28;20504;-80
2023/03/30 06:03:41;;;;;;;12.53;8.70;;;9.40;99.90;;;;;;5051662;28;20455;-78
2023/03/30 06:06:12;;;;;;;8.40;7.60;;;9.10;99.90;;;;;;5046363;28;20487;-79
2023/03/30 06:08:40;;;;;;;7.30;6.60;;;9.10;99.90;;;;;;5043401;28;20437;-81
2023/03/30 06:11:12;;;;;;;8.30;7.20;;;9.10;99.90;;;;;;5040940;28;20793;-80
2023/03/30 06:13:42;;;;;;;7.27;6.53;;;9.20;1.00;;;;;;5042428;28;20436;-82
2023/03/30 06:16:09;;;;;;;8.27;7.40;;;9.20;1.00;;;;;;5040482;28;20467;-82
2023/03/30 06:18:39;;;;;;;14.13;7.33;;;9.20;1.00;;;;;;5043142;28;20508;-80
2023/03/30 06:21:08;;;;;;;8.60;7.17;;;9.20;1.00;;;;;;5044627;28;20494;-82
2023/03/30 06:23:36;;;;;;;9.53;7.00;;;9.20;1.00;;;;;;5042735;28;20424;-83
2023/03/30 06:26:03;;;;;;;8.90;7.10;;;9.30;1.00;;;;;;5042001;28;20458;-80
2023/03/30 06:28:32;;;;;;;7.13;6.43;;;9.30;1.00;;;;;;5041357;28;20466;-81
2023/03/30 06:31:01;;;;;;;7.80;7.00;;;9.30;1.00;;;;;;5041135;28;20441;-81
2023/03/30 06:33:29;;;;;;;6.30;5.80;;;9.40;1.00;;;;;;5039813;28;20453;-80
2023/03/30 06:35:56;;;;;;;7.00;6.30;;;9.40;1.00;;;;;;5040548;28;20503;-79
2023/03/30 06:38:23;;;;;;;8.17;6.90;;;9.40;1.00;;;;;;5038776;28;20421;-80
2023/03/30 06:40:50;;;;;;;9.30;7.27;;;9.40;1.00;;;;;;5039779;28;20528;-81
2023/03/30 06:43:19;;;;;;;7.30;6.60;;;9.50;99.90;;;;;;5039534;28;20459;-80
2023/03/30 06:45:51;;;;;;;8.33;7.13;;;9.60;99.90;;;;;;5038922;28;20538;-80
2023/03/30 06:48:19;;;;;;;8.67;6.50;;;9.70;99.90;;;;;;5038868;28;20515;-81
2023/03/30 06:50:47;;;;;;;7.33;6.50;;;9.70;99.90;;;;;;5041583;28;20419;-81
2023/03/30 06:53:15;;;;;;;9.33;7.07;;;9.50;99.90;;;;;;5040375;28;20453;-82
2023/03/30 06:55:42;;;;;;;12.90;6.60;;;9.70;91.20;;;;;;5042343;28;20558;-81
2023/03/30 06:58:09;;;;;;;7.97;6.43;;;9.70;99.90;;;;;;5044687;28;20451;-79
2023/03/30 07:00:36;;;;;;;8.47;7.10;;;9.70;99.90;;;;;;5049797;28;20485;-79
2023/03/30 07:03:05;;;;;;;8.43;6.53;;;9.70;99.90;;;;;;5047388;28;20514;-79
2023/03/30 07:05:34;;;;;;;7.57;6.87;;;9.70;99.90;;;;;;5049891;28;20562;-79
2023/03/30 07:08:01;;;;;;;7.70;6.90;;;9.70;99.90;;;;;;5050268;28;20448;-81
2023/03/30 07:10:28;;;;;;;8.40;6.13;;;9.70;99.90;;;;;;5048218;28;20492;-79
2023/03/30 07:12:56;;;;;;;9.80;6.17;;;9.50;99.90;;;;;;5047627;28;20486;-81
2023/03/30 07:15:23;;;;;;;9.63;7.60;;;9.70;99.90;;;;;;5045484;28;20961;-81
2023/03/30 07:17:53;;;;;;;6.77;6.07;;;9.70;99.90;;;;;;5043139;28;20459;-80
2023/03/30 07:20:21;;;;;;;10.50;6.23;;;9.70;99.90;;;;;;5045060;28;20472;-82
2023/03/30 07:22:48;;;;;;;7.90;7.10;;;9.90;99.90;;;;;;5045285;28;20519;-82
2023/03/30 07:25:15;;;;;;;9.50;7.60;;;10.00;1.00;;;;;;5056423;22;20465;-83
2023/03/30 07:27:42;;;;;;;9.83;6.97;;;10.10;1.00;;;;;;5063292;28;20528;-83
2023/03/30 07:30:10;;;;;;;5.97;5.47;;;10.20;1.00;;;;;;5065566;28;20460;-83
2023/03/30 07:32:37;;;;;;;9.03;6.97;;;10.40;99.90;;;;;;5077130;28;20447;-82
2023/03/30 07:35:04;;;;;;;16.20;9.10;;;10.50;99.90;;;;;;5073211;28;20437;-82
2023/03/30 07:37:32;;;;;;;6.80;6.20;;;10.60;40.30;;;;;;5064192;28;20471;-84
2023/03/30 07:39:59;;;;;;;8.80;6.20;;;10.70;1.00;;;;;;5067081;28;20501;-84
2023/03/30 07:42:26;;;;;;;8.70;6.10;;;10.70;1.00;;;;;;5068567;28;20448;-84
2023/03/30 07:44:53;;;;;;;6.90;6.17;;;10.90;1.00;;;;;;5069429;28;20504;-83
2023/03/30 07:47:20;;;;;;;7.73;6.00;;;10.90;99.90;;;;;;5066031;28;20460;-84
2023/03/30 07:49:47;;;;;;;7.83;6.50;;;11.10;99.90;;;;;;5064297;28;20448;-84
2023/03/30 07:52:14;;;;;;;8.00;6.57;;;11.20;97.10;;;;;;5061524;28;20429;-84
2023/03/30 07:54:43;;;;;;;6.93;6.30;;;11.30;51.40;;;;;;5057837;28;20447;-84
2023/03/30 07:57:10;;;;;;;6.33;5.73;;;11.40;1.00;;;;;;5062838;28;20450;-83
2023/03/30 07:59:37;;;;;;;11.90;8.33;;;11.50;1.00;;;;;;5065256;28;20482;-83
2023/03/30 08:02:05;;;;;;;6.40;5.80;;;11.60;99.90;;;;;;5073354;28;20483;-83
2023/03/30 08:04:32;;;;;;;20.50;6.77;;;11.60;99.90;;;;;;5078312;28;20441;-83
2023/03/30 08:07:00;;;;;;;7.00;5.90;;;11.80;99.90;;;;;;5073459;28;20455;-82
2023/03/30 08:09:27;;;;;;;7.40;6.20;;;11.90;99.90;;;;;;5063849;28;20447;-82
2023/03/30 08:11:55;;;;;;;7.83;5.93;;;12.00;99.90;;;;;;5061366;28;20444;-81
2023/03/30 08:14:22;;;;;;;6.30;5.13;;;12.00;1.00;;;;;;5066790;28;20433;-81
2023/03/30 08:16:49;;;;;;;6.37;5.30;;;12.20;1.00;;;;;;5070633;28;20498;-81
2023/03/30 08:19:16;;;;;;;7.93;4.77;;;12.30;1.00;;;;;;5069329;28;20451;-81
2023/03/30 08:21:43;;;;;;;7.77;4.20;;;12.40;99.90;;;;;;5060233;28;20484;-83
2023/03/30 08:24:10;;;;;;;4.90;4.37;;;12.60;1.00;;;;;;5058586;28;20476;-82
2023/03/30 08:26:37;;;;;;;4.63;4.23;;;12.70;1.00;;;;;;5059237;28;20492;-82
2023/03/30 08:29:05;;;;;;;6.50;5.80;;;12.80;1.00;;;;;;5059327;28;20449;-82
2023/03/30 08:31:33;;;;;;;9.33;5.57;;;12.90;1.00;;;;;;5059942;28;20524;-82
2023/03/30 08:34:02;;;;;;;15.03;5.87;;;13.10;1.00;;;;;;5059396;28;20494;-82
2023/03/30 08:36:29;;;;;;;17.33;5.60;;;13.20;1.00;;;;;;5075527;28;20464;-82
2023/03/30 08:38:55;;;;;;;6.20;4.37;;;13.30;1.00;;;;;;5076065;28;20419;-82
2023/03/30 08:41:42;;;;;;;7.23;4.30;;;13.40;1.00;;;;;;5071590;28;21049;-83
2023/03/30 08:44:22;;;;;;;9.23;4.07;;;13.50;99.90;;;;;;5060079;28;20442;-82
2023/03/30 08:46:50;;;;;;;6.50;4.80;;;13.70;99.90;;;;;;5059284;28;20559;-81
2023/03/30 08:49:20;;;;;;;8.93;5.33;;;13.90;99.90;;;;;;5058704;28;20460;-82
2023/03/30 08:51:49;;;;;;;6.83;4.80;;;14.10;99.90;;;;;;5068229;28;20432;-82
2023/03/30 08:54:19;;;;;;;11.00;6.30;;;14.30;99.90;;;;;;5069391;28;20524;-82
2023/03/30 08:56:57;;;;;;;9.90;4.10;;;14.30;1.00;;;;;;5070190;28;20552;-82
2023/03/30 08:59:33;;;;;;;5.03;4.10;;;14.50;1.00;;;;;;5067808;28;20468;-82
2023/03/30 09:02:03;;;;;;;5.63;3.70;;;14.60;1.00;;;;;;5061180;28;20544;-82
2023/03/30 09:04:42;;;;;;;6.17;3.73;;;14.70;1.00;;;;;;5061473;28;20453;-80
2023/03/30 09:07:16;;;;;;;20.27;4.03;;;14.90;1.00;;;;;;5068680;28;21044;-79
2023/03/30 09:09:45;;;;;;;7.27;3.30;;;15.50;1.00;;;;;;5068162;28;20936;-80
2023/03/30 09:12:18;;;;;;;6.10;3.63;;;15.00;1.00;;;;;;5069678;28;20509;-83
2023/03/30 09:14:51;;;;;;;8.43;4.60;;;14.90;1.00;;;;;;5069115;28;20499;-82
2023/03/30 09:17:21;;;;;;;7.47;3.10;;;15.00;1.00;;;;;;5065834;28;20460;-81
2023/03/30 09:19:53;;;;;;;3.83;3.40;;;14.90;1.00;;;;;;5065357;28;20865;-82
2023/03/30 09:22:21;;;;;;;9.20;3.70;;;15.00;1.00;;;;;;5068446;28;20466;-82
2023/03/30 09:24:50;;;;;;;5.47;3.50;;;15.00;1.00;;;;;;5067764;28;20934;-82
2023/03/30 09:27:24;;;;;;;5.97;3.90;;;14.90;1.00;;;;;;5060164;28;20555;-82
2023/03/30 09:29:57;;;;;;;17.03;4.27;;;15.10;1.00;;;;;;5059383;28;20504;-82
2023/03/30 09:32:31;;;;;;;8.73;3.50;;;15.30;1.00;;;;;;5059263;28;20449;-82
2023/03/30 09:35:03;;;;;;;6.03;3.50;;;15.20;1.00;;;;;;5061887;28;20492;-81
2023/03/30 09:37:30;;;;;;;7.27;4.37;;;15.20;1.00;;;;;;5059935;28;20435;-81
2023/03/30 09:39:58;;;;;;;5.10;3.83;;;15.20;1.00;;;;;;5061638;28;20453;-81
2023/03/30 09:42:32;;;;;;;7.60;4.10;;;15.30;1.00;;;;;;5062728;28;20481;-81
2023/03/30 09:45:07;;;;;;;5.50;4.00;;;15.20;1.00;;;;;;5063797;28;20431;-81
2023/03/30 09:47:36;;;;;;;7.07;4.37;;;15.00;1.00;;;;;;5057490;28;20528;-81
2023/03/30 09:50:06;;;;;;;11.60;4.00;;;15.00;1.00;;;;;;5059013;28;20452;-81
2023/03/30 09:52:36;;;;;;;9.80;3.53;;;15.00;1.00;;;;;;5062306;28;20433;-82
2023/03/30 09:55:25;;;;;;;5.83;3.13;;;15.10;1.00;;;;;;5062027;28;20481;-81
2023/03/30 09:57:53;;;;;;;6.27;4.77;;;15.10;1.00;;;;;;5063657;28;20430;-81
2023/03/30 10:00:28;;;;;;;11.20;3.83;;;15.30;1.00;;;;;;5065188;28;20546;-81
2023/03/30 10:02:57;;;;;;;5.63;3.67;;;15.30;1.00;;;;;;5065420;28;20422;-81
2023/03/30 10:05:24;;;;;;;6.60;4.07;;;15.20;1.00;;;;;;5064339;28;20471;-81
2023/03/30 10:07:54;;;;;;;10.70;4.60;;;15.00;1.00;;;;;;5063597;28;20450;-81
2023/03/30 10:10:32;;;;;;;8.60;4.97;;;15.00;1.00;;;;;;5071594;28;20449;-81
2023/03/30 10:13:05;;;;;;;8.50;4.90;;;15.00;1.00;;;;;;5074505;28;20897;-81
2023/03/30 10:15:37;;;;;;;5.43;4.10;;;15.00;1.00;;;;;;5078033;28;20468;-81
2023/03/30 10:18:23;;;;;;;5.90;4.97;;;14.90;1.00;;;;;;5077276;28;20457;-81
2023/03/30 10:20:52;;;;;;;9.70;4.20;;;14.80;1.00;;;;;;5070212;28;20460;-81
2023/03/30 10:23:23;;;;;;;32.10;8.80;;;14.90;1.00;;;;;;5071068;28;20458;-82
2023/03/30 10:25:50;;;;;;;17.97;4.53;;;14.60;1.00;;;;;;5068470;28;20482;-82
2023/03/30 10:28:20;;;;;;;4.03;3.63;;;14.80;1.00;;;;;;5079375;28;20536;-82
2023/03/30 10:30:55;;;;;;;12.50;4.33;;;14.80;1.00;;;;;;5075545;28;20446;-82
2023/03/30 10:33:23;;;;;;;12.30;3.60;;;14.80;1.00;;;;;;5068406;28;20515;-82
2023/03/30 10:35:54;;;;;;;8.93;4.10;;;14.80;1.00;;;;;;5066256;28;20489;-83
2023/03/30 10:38:22;;;;;;;13.83;4.10;;;14.70;1.00;;;;;;5074381;28;20509;-82
2023/03/30 10:40:54;;;;;;;4.70;3.93;;;14.70;1.00;;;;;;5071062;28;20479;-82
2023/03/30 10:43:27;;;;;;;5.00;3.47;;;14.80;1.00;;;;;;5061375;28;20446;-82
2023/03/30 10:45:57;;;;;;;9.10;3.97;;;14.90;1.00;;;;;;5060795;28;20525;-82
2023/03/30 10:48:37;;;;;;;3.77;3.00;;;15.00;1.00;;;;;;5059944;28;20456;-82
2023/03/30 10:51:11;;;;;;;9.63;4.07;;;15.20;1.00;;;;;;5060545;28;20442;-82
2023/03/30 10:53:44;;;;;;;9.00;3.40;;;15.30;1.00;;;;;;5064310;28;20408;-83
2023/03/30 10:56:25;;;;;;;6.13;3.80;;;15.50;1.00;;;;;;5061559;28;20469;-83
2023/03/30 10:59:17;;;;;;;5.53;3.70;;;15.50;1.00;;;;;;5061176;28;20468;-82
2023/03/30 11:01:59;;;;;;;10.40;4.80;;;15.70;1.00;;;;;;5060246;28;20472;-82
2023/03/30 11:04:33;;;;;;;4.80;2.93;;;15.80;1.00;;;;;;5061517;28;20442;-82
2023/03/30 11:07:02;;;;;;;12.47;4.20;;;15.90;1.00;;;;;;5061706;28;20479;-81
2023/03/30 11:09:34;;;;;;;9.03;4.80;;;15.90;1.00;;;;;;5061185;28;20538;-81
2023/03/30 11:12:05;;;;;;;8.77;3.90;;;16.00;1.00;;;;;;5061900;28;20926;-82
2023/03/30 11:14:40;;;;;;;15.80;5.60;;;15.90;1.00;;;;;;5061312;28;20433;-82
2023/03/30 11:17:16;;;;;;;5.23;3.50;;;15.80;1.00;;;;;;5063829;28;20553;-84
2023/03/30 11:19:47;;;;;;;3.90;2.90;;;15.70;1.00;;;;;;5062291;28;20430;-83
2023/03/30 11:22:24;;;;;;;7.87;3.80;;;15.70;1.00;;;;;;5061321;28;20468;-83
2023/03/30 11:24:55;;;;;;;6.43;3.57;;;15.80;1.00;;;;;;5062230;28;20897;-83
2023/03/30 11:27:29;;;;;;;8.87;4.30;;;15.90;1.00;;;;;;5060992;28;20479;-83
2023/03/30 11:30:03;;;;;;;9.27;5.07;;;15.90;1.00;;;;;;5061329;28;20453;-82
2023/03/30 11:32:37;;;;;;;8.53;4.03;;;16.10;1.00;;;;;;5061898;28;20443;-82
2023/03/30 11:35:16;;;;;;;9.33;4.30;;;16.50;1.00;;;;;;5064769;28;20441;-82
2023/03/30 11:37:49;;;;;;;5.80;3.30;;;16.40;1.00;;;;;;5066799;28;20441;-82
2023/03/30 11:40:20;;;;;;;5.03;4.17;;;16.30;1.00;;;;;;5074328;28;20438;-82
2023/03/30 11:42:48;;;;;;;7.07;4.57;;;16.40;1.00;;;;;;5077965;28;20473;-82
2023/03/30 11:45:33;;;;;;;4.93;3.53;;;16.60;1.00;;;;;;5077619;28;20477;-82
2023/03/30 11:48:13;;;;;;;7.10;3.23;;;16.30;1.00;;;;;;5075037;28;20441;-83
2023/03/30 11:50:56;;;;;;;6.80;3.47;;;16.60;1.00;;;;;;5072572;28;20438;-80
2023/03/30 11:53:30;;;;;;;8.80;4.60;;;16.40;1.00;;;;;;5072957;28;20420;-83
2023/03/30 11:56:06;;;;;;;10.63;4.10;;;16.30;1.00;;;;;;5071848;28;20487;-81
2023/03/30 11:58:36;;;;;;;9.53;3.80;;;16.30;1.00;;;;;;5070473;28;20445;-81
2023/03/30 12:01:20;;;;;;;11.30;4.00;;;16.30;1.00;;;;;;5072462;28;20466;-82
2023/03/30 12:03:51;;;;;;;5.90;3.60;;;16.50;1.00;;;;;;5070257;28;20454;-81
2023/03/30 12:06:29;;;;;;;11.67;4.27;;;16.50;1.00;;;;;;5069855;28;20503;-81
2023/03/30 12:09:16;;;;;;;23.73;5.40;;;16.50;1.00;;;;;;5071693;28;20443;-81
2023/03/30 12:11:48;;;;;;;7.40;5.03;;;16.70;1.00;;;;;;5062170;28;20432;-82
2023/03/30 12:14:39;;;;;;;16.00;4.77;;;16.60;1.00;;;;;;5059798;28;20953;-81
2023/03/30 12:17:13;;;;;;;12.93;4.93;;;16.60;1.00;;;;;;5019156;28;20849;-82
2023/03/30 12:19:45;;;;;;;23.27;4.67;;;16.90;1.00;;;;;;5055565;28;20450;-82
2023/03/30 12:22:15;;;;;;;5.40;3.60;;;17.20;1.00;;;;;;5062038;28;20544;-82
2023/03/30 12:24:49;;;;;;;6.50;3.73;;;17.00;1.00;;;;;;5061242;28;20435;-81
2023/03/30 12:27:16;;;;;;;11.73;4.53;;;17.20;1.00;;;;;;5060064;28;20470;-81
2023/03/30 12:29:46;;;;;;;4.60;3.60;;;17.30;1.00;;;;;;5068638;28;20428;-81
2023/03/30 12:32:23;;;;;;;5.10;3.53;;;17.40;1.00;;;;;;5077032;28;20438;-81
2023/03/30 12:34:52;;;;;;;8.63;4.10;;;17.40;1.00;;;;;;5078028;28;20451;-81
2023/03/30 12:37:22;;;;;;;8.83;3.83;;;17.50;1.00;;;;;;5076612;28;20480;-83
2023/03/30 12:39:53;;;;;;;5.00;3.33;;;17.40;1.00;;;;;;5067592;28;20525;-83
2023/03/30 12:42:26;;;;;;;8.50;4.30;;;17.60;1.00;;;;;;5062601;28;20467;-83
2023/03/30 12:45:21;;;;;;;4.43;4.03;;;17.70;1.00;;;;;;5062560;28;20468;-83
2023/03/30 12:48:01;;;;;;;8.20;3.80;;;18.10;1.00;;;;;;5071491;28;20521;-82
2023/03/30 12:50:37;;;;;;;9.93;3.40;;;18.00;1.00;;;;;;5076817;28;20462;-82
2023/03/30 12:53:23;;;;;;;10.00;3.60;;;17.90;1.00;;;;;;5076720;28;20960;-82
2023/03/30 12:55:54;;;;;;;8.60;4.20;;;17.70;1.00;;;;;;5062606;28;20902;-83
2023/03/30 12:58:42;;;;;;;11.63;5.80;;;17.90;1.00;;;;;;5063095;28;20945;-83
2023/03/30 13:01:35;;;;;;;7.07;4.63;;;18.20;1.00;;;;;;5062173;28;20456;-82
2023/03/30 13:04:07;;;;;;;4.03;3.30;;;18.50;1.00;;;;;;5061249;28;20468;-80
2023/03/30 13:06:39;;;;;;;8.77;4.70;;;18.40;1.00;;;;;;5061527;28;20530;-81
2023/03/30 13:09:35;;;;;;;7.17;4.23;;;18.40;1.00;;;;;;5062580;28;20437;-82
2023/03/30 13:12:29;;;;;;;8.30;4.40;;;18.40;1.00;;;;;;5061560;28;20443;-82
2023/03/30 13:15:02;;;;;;;8.10;4.23;;;18.10;1.00;;;;;;5060574;28;20511;-82
2023/03/30 13:17:49;;;;;;;6.60;4.60;;;18.00;1.00;;;;;;5060295;28;20445;-83